createdAt,value
2022-11-17T00:00:51.299Z,99157.50
2022-11-17T00:03:20.895Z,99149.69
2022-11-17T00:05:50.684Z,99151.22
2022-11-17T00:08:20.239Z,99140.59
2022-11-17T00:10:49.938Z,99154.34
2022-11-17T00:13:34.722Z,99142.56
2022-11-17T00:16:04.494Z,99146.88
2022-11-17T00:18:46.587Z,99152.81
2022-11-17T00:21:23.915Z,99145.31
2022-11-17T00:23:53.806Z,99141.81
2022-11-17T00:26:25.248Z,99126.00
2022-11-17T00:28:59.247Z,99139.03
2022-11-17T00:31:42.938Z,99126.09
2022-11-17T00:34:16.287Z,99116.69
2022-11-17T00:36:48.853Z,99116.28
2022-11-17T00:39:20.171Z,99123.72
2022-11-17T00:41:49.786Z,99123.34
2022-11-17T00:44:22.300Z,99126.84
2022-11-17T00:46:51.947Z,99124.13
2022-11-17T00:49:25.460Z,99108.00
2022-11-17T00:51:55.319Z,99100.94
2022-11-17T00:54:25.681Z,99108.03
2022-11-17T00:56:55.490Z,99095.44
2022-11-17T00:59:27.676Z,99105.28
2022-11-17T01:01:57.615Z,99098.19
2022-11-17T01:04:27.427Z,99094.66
2022-11-17T01:06:57.182Z,99098.22
2022-11-17T01:09:27.072Z,99081.66
2022-11-17T01:11:57.066Z,99074.56
2022-11-17T01:14:32.796Z,99079.34
2022-11-17T01:17:02.406Z,99079.28
2022-11-17T01:19:32.045Z,99079.28
2022-11-17T01:22:01.833Z,99082.34
2022-11-17T01:24:31.555Z,99076.94
2022-11-17T01:27:01.567Z,99049.38
2022-11-17T01:29:34.309Z,99054.06
2022-11-17T01:32:04.042Z,99048.59
2022-11-17T01:34:34.171Z,99067.81
2022-11-17T01:37:16.250Z,99061.16
2022-11-17T01:39:46.154Z,99057.22
2022-11-17T01:42:19.042Z,99039.88
2022-11-17T01:45:03.321Z,99056.50
2022-11-17T01:47:39.648Z,99051.00
2022-11-17T01:50:22.825Z,99030.94
2022-11-17T01:52:54.208Z,99025.50
2022-11-17T01:55:26.950Z,99031.81
2022-11-17T01:58:01.471Z,99034.91
2022-11-17T02:00:34.151Z,99016.06
2022-11-17T02:03:07.183Z,99002.72
2022-11-17T02:05:44.627Z,98989.31
2022-11-17T02:08:14.908Z,99017.22
2022-11-17T02:10:51.489Z,99023.56
2022-11-17T02:13:22.463Z,98979.50
2022-11-17T02:15:54.794Z,99009.00
2022-11-17T02:18:25.032Z,99004.31
2022-11-17T02:21:17.831Z,98996.06
2022-11-17T02:24:14.834Z,98982.69
2022-11-17T02:27:10.769Z,98992.97
2022-11-17T02:29:50.778Z,98995.72
2022-11-17T02:32:27.382Z,98989.84
2022-11-17T02:35:07.546Z,98967.47
2022-11-17T02:37:46.603Z,98985.16
2022-11-17T02:40:22.011Z,98981.22
2022-11-17T02:43:12.443Z,98960.03
2022-11-17T02:45:51.861Z,98977.31
2022-11-17T02:48:28.134Z,98955.38
2022-11-17T02:50:59.003Z,98942.78
2022-11-17T02:53:30.446Z,98932.97
2022-11-17T02:56:03.949Z,98920.81
2022-11-17T02:58:33.660Z,98934.19
2022-11-17T03:01:30.987Z,98939.28
2022-11-17T03:04:21.196Z,98935.75
2022-11-17T03:07:01.615Z,98927.50
2022-11-17T03:09:41.930Z,98925.53
2022-11-17T03:12:17.085Z,98916.13
2022-11-17T03:14:55.911Z,98927.88
2022-11-17T03:17:33.188Z,98923.94
2022-11-17T03:20:09.684Z,98941.25
2022-11-17T03:22:50.498Z,98906.28
2022-11-17T03:25:23.429Z,98918.47
2022-11-17T03:27:58.520Z,98916.97
2022-11-17T03:30:34.687Z,98913.78
2022-11-17T03:33:15.573Z,98913.78
2022-11-17T03:35:51.444Z,98905.97
2022-11-17T03:38:26.039Z,98887.09
2022-11-17T03:40:58.638Z,98874.50
2022-11-17T03:43:31.800Z,98901.19
2022-11-17T03:46:06.948Z,98902.75
2022-11-17T03:48:48.209Z,98895.69
2022-11-17T03:51:21.471Z,98889.34
2022-11-17T03:53:52.760Z,98911.34
2022-11-17T03:56:34.275Z,98876.03
2022-11-17T03:59:07.031Z,98879.22
2022-11-17T04:01:38.098Z,98873.66
2022-11-17T04:04:10.752Z,98879.22
2022-11-17T04:06:40.398Z,98883.91
2022-11-17T04:09:10.111Z,98878.41
2022-11-17T04:11:52.255Z,98879.97
2022-11-17T04:14:34.247Z,98880.81
2022-11-17T04:17:03.986Z,98875.72
2022-11-17T04:19:36.226Z,98867.44
2022-11-17T04:22:06.044Z,98868.59
2022-11-17T04:24:35.681Z,98872.91
2022-11-17T04:27:17.751Z,98866.69
2022-11-17T04:29:47.413Z,98861.09
2022-11-17T04:32:17.083Z,98851.78
2022-11-17T04:34:49.337Z,98845.06
2022-11-17T04:37:19.977Z,98843.16
2022-11-17T04:39:49.674Z,98838.00
2022-11-17T04:42:16.850Z,98836.41
2022-11-17T04:44:46.474Z,98847.06
2022-11-17T04:47:17.202Z,98840.34
2022-11-17T04:49:49.401Z,98842.72
2022-11-17T04:52:19.060Z,98833.28
2022-11-17T04:54:48.753Z,98840.72
2022-11-17T04:57:18.411Z,98835.25
2022-11-17T04:59:48.134Z,98843.91
2022-11-17T05:02:17.844Z,98808.56
2022-11-17T05:04:59.307Z,98836.03
2022-11-17T05:07:29.017Z,98832.09
2022-11-17T05:10:01.606Z,98824.28
2022-11-17T05:12:43.692Z,98825.44
2022-11-17T05:15:33.400Z,98830.53
2022-11-17T05:18:00.671Z,98812.84
2022-11-17T05:20:35.540Z,98818.03
2022-11-17T05:23:17.650Z,98820.75
2022-11-17T05:25:47.248Z,98803.94
2022-11-17T05:28:16.906Z,98794.13
2022-11-17T05:30:46.564Z,98790.56
2022-11-17T05:33:16.197Z,98778.00
2022-11-17T05:35:48.632Z,98805.47
2022-11-17T05:38:18.265Z,98798.03
2022-11-17T05:40:47.968Z,98787.84
2022-11-17T05:43:17.696Z,98789.03
2022-11-17T05:45:48.748Z,98778.06
2022-11-17T05:48:18.800Z,98786.72
2022-11-17T05:50:51.149Z,98787.44
2022-11-17T05:53:20.927Z,98760.34
2022-11-17T05:55:50.755Z,98767.72
2022-11-17T05:58:25.337Z,98772.91
2022-11-17T06:00:57.210Z,98778.78
2022-11-17T06:03:32.045Z,98768.56
2022-11-17T06:06:04.505Z,98771.69
2022-11-17T06:08:38.679Z,98779.50
2022-11-17T06:11:08.719Z,98764.59
2022-11-17T06:13:38.544Z,98768.16
2022-11-17T06:16:12.971Z,98806.91
2022-11-17T06:18:48.039Z,98798.31
2022-11-17T06:21:23.487Z,98796.75
2022-11-17T06:23:53.753Z,98797.91
2022-11-17T06:26:23.495Z,98790.47
2022-11-17T06:28:54.249Z,98801.06
2022-11-17T06:31:24.327Z,98802.59
2022-11-17T06:33:54.115Z,98805.31
2022-11-17T06:36:27.875Z,98801.00
2022-11-17T06:38:57.516Z,98798.69
2022-11-17T06:41:27.254Z,98801.00
2022-11-17T06:43:58.973Z,98808.41
2022-11-17T06:46:38.060Z,98797.75
2022-11-17T06:49:09.223Z,98792.25
2022-11-17T06:51:45.115Z,98804.88
2022-11-17T06:54:15.891Z,98801.34
2022-11-17T06:56:45.483Z,98776.19
2022-11-17T06:59:16.150Z,98803.28
2022-11-17T07:01:46.185Z,98803.66
2022-11-17T07:04:15.960Z,98800.47
2022-11-17T07:06:48.332Z,98800.91
2022-11-17T07:09:18.186Z,98805.59
2022-11-17T07:11:47.752Z,98803.97
2022-11-17T07:14:17.448Z,98812.56
2022-11-17T07:16:47.074Z,98804.78
2022-11-17T07:19:16.676Z,98795.00
2022-11-17T07:21:48.955Z,98804.78
2022-11-17T07:24:18.537Z,98796.56
2022-11-17T07:26:48.069Z,98802.84
2022-11-17T07:29:17.746Z,98804.44
2022-11-17T07:31:47.344Z,98805.56
2022-11-17T07:34:17.045Z,98787.19
2022-11-17T07:36:49.242Z,98794.97
2022-11-17T07:39:21.820Z,98803.56
2022-11-17T07:41:51.609Z,98792.59
2022-11-17T07:44:21.114Z,98785.16
2022-11-17T07:46:50.651Z,98789.88
2022-11-17T07:49:20.250Z,98794.19
2022-11-17T07:51:52.611Z,98789.88
2022-11-17T07:54:22.308Z,98782.38
2022-11-17T07:56:51.932Z,98770.59
2022-11-17T07:59:21.825Z,98768.69
2022-11-17T08:01:51.401Z,98748.28
2022-11-17T08:04:20.958Z,98779.28
2022-11-17T08:06:53.386Z,98780.03
2022-11-17T08:09:22.959Z,98782.38
2022-11-17T08:11:52.579Z,98781.63
2022-11-17T08:14:22.102Z,98778.88
2022-11-17T08:16:51.654Z,98769.81
2022-11-17T08:19:21.262Z,98762.41
2022-11-17T08:21:53.747Z,98775.38
2022-11-17T08:24:23.443Z,98755.75
2022-11-17T08:26:53.614Z,98770.69
2022-11-17T08:29:24.521Z,98763.63
2022-11-17T08:31:54.080Z,98785.50
2022-11-17T08:34:23.617Z,98785.88
2022-11-17T08:36:56.487Z,98772.19
2022-11-17T08:39:25.974Z,98774.84
2022-11-17T08:41:55.748Z,98789.75
2022-11-17T08:44:25.360Z,98792.88
2022-11-17T08:46:54.883Z,98784.72
2022-11-17T08:49:24.556Z,98772.13
2022-11-17T08:51:56.728Z,98771.38
2022-11-17T08:54:26.265Z,98766.69
2022-11-17T08:56:59.955Z,98768.28
2022-11-17T08:59:29.658Z,98753.28
2022-11-17T09:01:59.148Z,98744.75
2022-11-17T09:04:28.829Z,98756.13
2022-11-17T09:07:01.068Z,98752.19
2022-11-17T09:09:32.961Z,98760.06
2022-11-17T09:12:02.995Z,98747.13
2022-11-17T09:14:32.567Z,98724.09
2022-11-17T09:17:02.387Z,98719.38
2022-11-17T09:19:32.027Z,98721.75
2022-11-17T09:22:04.224Z,98711.56
2022-11-17T09:24:33.805Z,98722.91
2022-11-17T09:27:03.706Z,98704.94
2022-11-17T09:29:33.585Z,98697.09
2022-11-17T09:32:03.135Z,98710.41
2022-11-17T09:34:32.863Z,98700.66
2022-11-17T09:37:05.057Z,98699.88
2022-11-17T09:39:34.638Z,98706.56
2022-11-17T09:42:04.314Z,98705.44
2022-11-17T09:44:42.436Z,98694.06
2022-11-17T09:47:26.073Z,98699.94
2022-11-17T09:50:00.256Z,98695.66
2022-11-17T09:52:38.303Z,98681.97
2022-11-17T09:55:34.149Z,98681.16
2022-11-17T09:58:18.210Z,98692.53
2022-11-17T10:00:54.336Z,98686.69
2022-11-17T10:03:25.641Z,98686.69
2022-11-17T10:06:00.935Z,98677.69
2022-11-17T10:09:00.219Z,98685.53
2022-11-17T10:11:36.455Z,98639.66
2022-11-17T10:14:14.582Z,98661.25
2022-11-17T10:16:47.823Z,98676.53
2022-11-17T10:19:19.743Z,98666.72
2022-11-17T10:21:53.156Z,98677.31
2022-11-17T10:24:42.317Z,98676.13
2022-11-17T10:27:27.115Z,98680.06
2022-11-17T10:30:02.015Z,98669.50
2022-11-17T10:32:34.723Z,98666.38
2022-11-17T10:35:18.641Z,98655.41
2022-11-17T10:37:56.242Z,98655.06
2022-11-17T10:40:30.117Z,98649.16
2022-11-17T10:43:07.817Z,98657.44
2022-11-17T10:45:37.557Z,98674.28
2022-11-17T10:48:22.829Z,98679.75
2022-11-17T10:50:57.861Z,98672.69
2022-11-17T10:53:42.818Z,98669.19
2022-11-17T10:56:21.121Z,98666.84
2022-11-17T10:58:59.836Z,98664.09
2022-11-17T11:01:37.871Z,98672.75
2022-11-17T11:04:09.563Z,98657.06
2022-11-17T11:06:39.236Z,98653.16
2022-11-17T11:09:14.630Z,98661.38
2022-11-17T11:11:49.575Z,98652.41
2022-11-17T11:14:25.889Z,98653.56
2022-11-17T11:16:57.185Z,98645.72
2022-11-17T11:19:26.820Z,98648.09
2022-11-17T11:22:23.211Z,98637.13
2022-11-17T11:24:58.089Z,98653.97
2022-11-17T11:27:44.720Z,98653.97
2022-11-17T11:30:17.389Z,98651.66
2022-11-17T11:33:01.514Z,98645.78
2022-11-17T11:35:42.610Z,98646.56
2022-11-17T11:38:28.471Z,98642.28
2022-11-17T11:41:12.949Z,98643.03
2022-11-17T11:43:55.752Z,98639.13
2022-11-17T11:46:34.787Z,98635.63
2022-11-17T11:49:14.684Z,98633.25
2022-11-17T11:51:55.605Z,98636.00
2022-11-17T11:54:38.173Z,98637.16
2022-11-17T11:57:15.250Z,98639.13
2022-11-17T11:59:59.477Z,98639.16
2022-11-17T12:02:38.024Z,98625.81
2022-11-17T12:05:19.766Z,98636.03
2022-11-17T12:07:53.832Z,98620.72
2022-11-17T12:10:31.288Z,98608.97
2022-11-17T12:13:01.816Z,98613.69
2022-11-17T12:15:40.523Z,98626.63
2022-11-17T12:18:16.827Z,98636.44
2022-11-17T12:21:14.269Z,98627.41
2022-11-17T12:24:13.853Z,98626.22
2022-11-17T12:26:43.812Z,98626.22
2022-11-17T12:29:33.722Z,98630.13
2022-11-17T12:32:06.453Z,98627.44
2022-11-17T12:34:37.429Z,98632.91
2022-11-17T12:37:21.846Z,98629.75
2022-11-17T12:39:59.548Z,98626.22
2022-11-17T12:42:29.398Z,98634.84
2022-11-17T12:45:04.307Z,98637.22
2022-11-17T12:47:39.084Z,98635.25
2022-11-17T12:50:35.039Z,98614.88
2022-11-17T12:53:31.397Z,98610.94
2022-11-17T12:56:31.714Z,98622.72
2022-11-17T12:59:35.632Z,98630.16
2022-11-17T13:02:18.416Z,98632.13
2022-11-17T13:04:55.395Z,98612.16
2022-11-17T13:07:27.325Z,98619.97
2022-11-17T13:09:59.473Z,98625.47
2022-11-17T13:12:30.834Z,98626.25
2022-11-17T13:15:02.780Z,98623.91
2022-11-17T13:17:36.439Z,98627.81
2022-11-17T13:20:22.572Z,98621.56
2022-11-17T13:23:02.563Z,98630.53
2022-11-17T13:25:32.244Z,98620.75
2022-11-17T13:28:05.062Z,98629.78
2022-11-17T13:30:36.179Z,98620.75
2022-11-17T13:33:06.450Z,98619.59
2022-11-17T13:35:39.263Z,98626.25
2022-11-17T13:38:18.590Z,98625.47
2022-11-17T13:40:50.010Z,98617.66
2022-11-17T13:43:21.978Z,98611.75
2022-11-17T13:45:52.175Z,98610.59
2022-11-17T13:48:35.880Z,98609.00
2022-11-17T13:51:39.229Z,98611.75
2022-11-17T13:54:18.133Z,98613.31
2022-11-17T13:56:54.360Z,98614.50
2022-11-17T13:59:28.342Z,98622.34
2022-11-17T14:02:27.025Z,98630.94
2022-11-17T14:05:23.145Z,98623.09
2022-11-17T14:07:57.021Z,98618.44
2022-11-17T14:10:32.635Z,98614.88
2022-11-17T14:13:25.239Z,98619.19
2022-11-17T14:16:00.790Z,98636.44
2022-11-17T14:18:34.272Z,98623.13
2022-11-17T14:21:13.553Z,98636.81
2022-11-17T14:23:47.521Z,98642.31
2022-11-17T14:26:22.136Z,98634.47
2022-11-17T14:28:53.137Z,98629.38
2022-11-17T14:31:23.073Z,98629.38
2022-11-17T14:33:52.633Z,98645.44
2022-11-17T14:36:22.333Z,98653.66
2022-11-17T14:38:54.986Z,98640.34
2022-11-17T14:41:24.643Z,98636.44
2022-11-17T14:43:54.216Z,98645.81
2022-11-17T14:46:26.679Z,98645.03
2022-11-17T14:48:56.867Z,98648.97
2022-11-17T14:51:26.566Z,98650.91
2022-11-17T14:53:58.973Z,98647.78
2022-11-17T14:56:28.912Z,98641.91
2022-11-17T14:59:00.929Z,98638.75
2022-11-17T15:01:32.417Z,98636.03
2022-11-17T15:04:21.083Z,98645.44
2022-11-17T15:06:53.593Z,98652.88
2022-11-17T15:09:25.895Z,98654.06
2022-11-17T15:11:55.510Z,98663.06
2022-11-17T15:14:25.492Z,98665.78
2022-11-17T15:16:55.307Z,98664.63
2022-11-17T15:19:24.901Z,98664.25
2022-11-17T15:21:54.565Z,98663.84
2022-11-17T15:24:27.123Z,98656.41
2022-11-17T15:26:56.688Z,98670.91
2022-11-17T15:29:26.374Z,98672.84
2022-11-17T15:31:58.926Z,98674.81
2022-11-17T15:34:28.701Z,98682.66
2022-11-17T15:36:58.375Z,98668.16
2022-11-17T15:39:30.649Z,98668.94
2022-11-17T15:42:00.327Z,98672.06
2022-11-17T15:44:29.913Z,98677.53
2022-11-17T15:46:59.843Z,98670.91
2022-11-17T15:49:29.394Z,98670.88
2022-11-17T15:51:59.060Z,98665.41
2022-11-17T15:54:31.485Z,98671.69
2022-11-17T15:57:02.893Z,98668.53
2022-11-17T15:59:32.754Z,98666.56
2022-11-17T16:02:10.305Z,98672.47
2022-11-17T16:04:39.952Z,98677.94
2022-11-17T16:07:09.543Z,98677.56
2022-11-17T16:09:43.898Z,98678.31
2022-11-17T16:12:17.002Z,98671.69
2022-11-17T16:14:46.773Z,98674.81
2022-11-17T16:17:16.347Z,98674.00
2022-11-17T16:19:45.918Z,98683.03
2022-11-17T16:22:16.619Z,98681.84
2022-11-17T16:24:48.989Z,98666.59
2022-11-17T16:27:18.683Z,98661.50
2022-11-17T16:29:48.666Z,98661.50
2022-11-17T16:32:18.871Z,98655.63
2022-11-17T16:34:50.533Z,98673.22
2022-11-17T16:37:20.615Z,98665.03
2022-11-17T16:39:53.337Z,98682.25
2022-11-17T16:42:23.369Z,98683.44
2022-11-17T16:44:53.491Z,98661.88
2022-11-17T16:47:23.843Z,98674.00
2022-11-17T16:49:53.937Z,98677.53
2022-11-17T16:52:23.856Z,98685.38
2022-11-17T16:54:59.211Z,98687.34
2022-11-17T16:57:33.304Z,98692.81
2022-11-17T17:00:03.434Z,98693.22
2022-11-17T17:02:34.937Z,98691.25
2022-11-17T17:05:05.311Z,98705.38
2022-11-17T17:07:35.063Z,98697.13
2022-11-17T17:10:08.319Z,98683.03
2022-11-17T17:12:38.221Z,98701.06
2022-11-17T17:15:10.360Z,98707.31
2022-11-17T17:17:40.238Z,98696.72
2022-11-17T17:20:12.416Z,98701.03
2022-11-17T17:22:42.396Z,98700.25
2022-11-17T17:25:15.592Z,98703.00
2022-11-17T17:27:45.557Z,98695.19
2022-11-17T17:30:17.356Z,98699.88
2022-11-17T17:32:47.389Z,98702.63
2022-11-17T17:35:17.583Z,98696.72
2022-11-17T17:37:47.426Z,98703.00
2022-11-17T17:40:20.293Z,98700.25
2022-11-17T17:42:50.495Z,98707.31
2022-11-17T17:45:20.445Z,98713.22
2022-11-17T17:47:50.569Z,98719.06
2022-11-17T17:50:20.699Z,98713.59
2022-11-17T17:52:50.559Z,98704.97
2022-11-17T17:55:24.089Z,98708.09
2022-11-17T17:57:53.933Z,98710.84
2022-11-17T18:00:24.204Z,98715.53
2022-11-17T18:02:54.506Z,98708.44
2022-11-17T18:05:25.080Z,98708.44
2022-11-17T18:07:55.111Z,98721.03
2022-11-17T18:10:27.302Z,98718.28
2022-11-17T18:12:56.888Z,98721.03
2022-11-17T18:15:26.467Z,98716.28
2022-11-17T18:17:56.023Z,98720.63
2022-11-17T18:20:25.798Z,98730.41
2022-11-17T18:22:55.515Z,98728.06
2022-11-17T18:25:27.903Z,98731.19
2022-11-17T18:27:57.414Z,98724.16
2022-11-17T18:30:26.946Z,98731.97
2022-11-17T18:33:00.309Z,98737.06
2022-11-17T18:35:32.347Z,98745.28
2022-11-17T18:38:02.117Z,98741.75
2022-11-17T18:40:34.427Z,98744.13
2022-11-17T18:43:04.086Z,98755.47
2022-11-17T18:45:33.666Z,98749.59
2022-11-17T18:48:03.170Z,98751.94
2022-11-17T18:50:32.897Z,98745.28
2022-11-17T18:53:02.757Z,98742.16
2022-11-17T18:55:34.983Z,98738.63
2022-11-17T18:58:04.496Z,98727.25
2022-11-17T19:00:34.143Z,98741.34
2022-11-17T19:03:03.835Z,98732.34
2022-11-17T19:05:36.310Z,98738.59
2022-11-17T19:08:06.283Z,98740.97
2022-11-17T19:10:38.673Z,98746.81
2022-11-17T19:13:08.278Z,98738.59
2022-11-17T19:15:37.787Z,98735.06
2022-11-17T19:18:07.365Z,98740.19
2022-11-17T19:20:37.175Z,98742.50
2022-11-17T19:23:06.678Z,98744.88
2022-11-17T19:25:42.891Z,98746.03
2022-11-17T19:28:14.943Z,98736.25
2022-11-17T19:30:44.802Z,98735.84
2022-11-17T19:33:15.181Z,98742.50
2022-11-17T19:35:44.727Z,98744.50
2022-11-17T19:38:15.190Z,98741.34
2022-11-17T19:40:47.391Z,98746.03
2022-11-17T19:43:19.387Z,98751.50
2022-11-17T19:45:48.979Z,98753.84
2022-11-17T19:48:18.777Z,98758.16
2022-11-17T19:50:54.494Z,98767.56
2022-11-17T19:53:26.205Z,98767.94
2022-11-17T19:55:58.639Z,98782.84
2022-11-17T19:58:28.175Z,98791.03
2022-11-17T20:00:57.820Z,98774.19
2022-11-17T20:03:27.877Z,98789.13
2022-11-17T20:06:02.232Z,98792.25
2022-11-17T20:08:32.702Z,98802.84
2022-11-17T20:11:10.569Z,98794.63
2022-11-17T20:13:41.777Z,98800.91
2022-11-17T20:16:14.754Z,98805.97
2022-11-17T20:18:45.098Z,98792.66
2022-11-17T20:21:16.359Z,98808.34
2022-11-17T20:23:46.299Z,98797.00
2022-11-17T20:26:21.342Z,98790.72
2022-11-17T20:28:51.857Z,98789.53
2022-11-17T20:31:24.487Z,98795.41
2022-11-17T20:33:57.810Z,98799.31
2022-11-17T20:36:27.902Z,98804.44
2022-11-17T20:38:59.598Z,98806.38
2022-11-17T20:41:33.015Z,98794.63
2022-11-17T20:44:03.764Z,98797.00
2022-11-17T20:46:34.077Z,98787.56
2022-11-17T20:49:04.096Z,98791.88
2022-11-17T20:51:33.972Z,98802.84
2022-11-17T20:54:04.191Z,98800.91
2022-11-17T20:56:36.668Z,98807.94
2022-11-17T20:59:07.079Z,98812.25
2022-11-17T21:01:36.854Z,98800.47
2022-11-17T21:04:06.643Z,98809.88
2022-11-17T21:06:36.655Z,98811.06
2022-11-17T21:09:06.287Z,98809.13
2022-11-17T21:11:51.346Z,98817.34
2022-11-17T21:14:21.289Z,98803.22
2022-11-17T21:16:51.292Z,98814.59
2022-11-17T21:19:21.449Z,98799.25
2022-11-17T21:21:54.098Z,98820.81
2022-11-17T21:24:26.098Z,98828.66
2022-11-17T21:26:58.710Z,98831.41
2022-11-17T21:29:28.451Z,98821.19
2022-11-17T21:31:58.253Z,98832.56
2022-11-17T21:34:28.807Z,98838.44
2022-11-17T21:36:59.192Z,98839.63
2022-11-17T21:39:29.168Z,98836.84
2022-11-17T21:42:01.600Z,98846.66
2022-11-17T21:44:31.472Z,98845.88
2022-11-17T21:47:01.357Z,98830.19
2022-11-17T21:49:31.410Z,98850.19
2022-11-17T21:52:01.212Z,98849.41
2022-11-17T21:54:31.405Z,98849.00
2022-11-17T21:57:04.007Z,98843.13
2022-11-17T21:59:33.942Z,98847.44
2022-11-17T22:02:04.117Z,98850.56
2022-11-17T22:04:34.134Z,98850.97
2022-11-17T22:07:04.176Z,98842.31
2022-11-17T22:09:34.228Z,98861.16
2022-11-17T22:12:07.601Z,98866.59
2022-11-17T22:14:37.681Z,98858.75
2022-11-17T22:17:07.774Z,98870.09
2022-11-17T22:19:40.816Z,98872.03
2022-11-17T22:22:10.772Z,98881.84
2022-11-17T22:24:41.629Z,98876.78
2022-11-17T22:27:16.933Z,98887.72
2022-11-17T22:29:47.012Z,98884.94
2022-11-17T22:32:17.076Z,98890.84
2022-11-17T22:34:47.205Z,98894.75
2022-11-17T22:37:19.297Z,98893.13
2022-11-17T22:39:49.378Z,98892.78
2022-11-17T22:42:21.915Z,98900.66
2022-11-17T22:44:52.260Z,98895.53
2022-11-17T22:47:22.381Z,98907.28
2022-11-17T22:49:52.259Z,98906.13
2022-11-17T22:52:22.243Z,98906.84
2022-11-17T22:54:52.044Z,98913.56
2022-11-17T22:57:24.504Z,98901.72
2022-11-17T22:59:54.618Z,98913.94
2022-11-17T23:02:24.404Z,98918.25
2022-11-17T23:04:54.249Z,98919.78
2022-11-17T23:07:24.328Z,98924.09
2022-11-17T23:09:54.093Z,98925.25
2022-11-17T23:12:26.525Z,98927.97
2022-11-17T23:14:56.565Z,98925.69
2022-11-17T23:17:26.440Z,98933.09
2022-11-17T23:19:56.191Z,98933.47
2022-11-17T23:22:25.861Z,98923.28
2022-11-17T23:24:55.558Z,98918.59
2022-11-17T23:27:28.361Z,98933.47
2022-11-17T23:29:57.945Z,98930.34
2022-11-17T23:32:27.653Z,98931.88
2022-11-17T23:34:57.477Z,98932.25
2022-11-17T23:37:27.341Z,98935.38
2022-11-17T23:39:57.082Z,98936.97
2022-11-17T23:42:32.422Z,98927.88
2022-11-17T23:45:02.789Z,98935.34
2022-11-17T23:47:32.967Z,98938.47
2022-11-17T23:50:02.736Z,98950.59
2022-11-17T23:52:32.626Z,98954.47
2022-11-17T23:55:02.561Z,98947.38
2022-11-17T23:57:35.155Z,98953.69
